Main page
METAR-TAF:

METAR-TAF

Airports :

Burnet Municipal Airport

Burnet, Texas, United States

latitude: 30-44-26N, longitude: 098-14-07W, elevation: 1286 ft

Current weather observation

The report was made 21 minutes ago, at 17:34 UTC
Wind 12 mph from the East with gusts up to 23 mph
Temperature 84°F
Humidity 70%
Pressure 30.16 in. Hg
Visibility: 10 miles
Few clouds at a height of 1900 ft
Broken clouds at a height of 3800 ft
Broken clouds at a height of 5000 ft

METAR: KBMQ 201734Z AUTO 09010G20KT 10SM FEW019 BKN038 BKN050 29/23 A3016 RMK AO2 T02890233

Time: 12:55 (17:55 UTC)


TAF: missing

Weather observations and forecasts of more than 4000 airports (METAR and TAF reports).

The available stations are represented by yellow and red dots on the map.

Hover mouse over dot to see the name of the station.

Then click to see weather observations and forecasts.

To change the map : click on the green buttons with a black cross to zoom in, on the green button with a dash to zoom out, or on the green arrows for adjacent maps.


METAR-TAF: